Terminal Aerodrome Forecast
Issued by NWS Northern Indiana

Home | Current Version | Previous Version | Text Only | Print | Product List | Glossary Off
Versions: 1 2 3 4 5 6 7 8 9 10 11 12 13 14 15

428
FTUS43 KIWX 280520
TAFFWA
TAF
KFWA 280520Z 2806/2906 03008KT P6SM VCSH OVC040
     FM280700 02008KT P6SM VCSH OVC030
     FM280900 02008KT P6SM OVC035
     FM281400 01008KT P6SM OVC008
     FM282100 02007KT P6SM BKN020
     FM290300 04006KT P6SM BKN030
     FM290400 04007KT P6SM SCT045=

USA.gov is the U.S. government's official web portal to all federal, state and local government web resources and services.